Aviation Digital Data Service (ADDS)

Output produced by METARs form (1133 UTC 21 February 2018)
found at http://aviationweather.gov/adds/metars/
 
KEWR 201403Z 2014/2118 23008KT 5SM BR BKN006 
     FM201600 23010KT 6SM BR SCT007 BKN015 
     FM201800 23012G18KT P6SM SCT015 SCT025 BKN250 
     FM202300 20006KT P6SM SCT015 BKN250 
     FM210300 21004KT 3SM BR BKN007 
     FM210500 20004KT 1/2SM FG BKN004 
     FM211300 21009KT 2SM BR SCT005 BKN015 
     FM211500 22011KT P6SM SCT015 SCT040